Time;durP1;ratioP1;P1;durP2;ratioP2;P2;SDS_P1;SDS_P2;PMS_P1;PMS_P2;Temp;Humidity;BMP_temperature;BMP_pressure;BME280_temperature;BME280_humidity;BME280_pressure;Samples;Min_cycle;Max_cycle;Signal;HPM_P1;HPM_P2
2022/10/21 00:01:11;;;;;;;2.83;1.55;;;;;;;7.35;70.84;101665.00;1892709;75;21027;-47
2022/10/21 00:03:40;;;;;;;2.12;1.32;;;;;;;7.34;70.68;101658.89;1911189;75;21039;-45
2022/10/21 00:06:10;;;;;;;4.87;3.95;;;;;;;7.35;71.65;101658.45;1885148;74;21025;-47
2022/10/21 00:08:39;;;;;;;5.35;1.60;;;;;;;7.35;71.87;101661.06;1881231;76;21449;-48
2022/10/21 00:11:09;;;;;;;4.10;1.50;;;;;;;7.35;71.98;101661.92;1878501;76;21492;-46
2022/10/21 00:13:39;;;;;;;5.05;1.82;;;;;;;7.37;71.99;101671.53;1903929;75;21040;-47
2022/10/21 00:16:17;;;;;;;2.95;1.22;;;;;;;7.39;71.73;101685.48;1910997;75;21047;-46
2022/10/21 00:18:47;;;;;;;3.15;1.67;;;;;;;7.39;71.45;101685.48;1910780;75;21074;-48
2022/10/21 00:21:21;;;;;;;5.67;2.10;;;;;;;7.39;71.66;101685.48;1900250;74;21035;-47
2022/10/21 00:23:50;;;;;;;1.15;0.80;;;;;;;7.39;71.76;101681.55;1885316;75;21096;-50
2022/10/21 00:26:19;;;;;;;2.75;1.52;;;;;;;7.38;72.31;101684.63;1911109;75;21031;-46
2022/10/21 00:28:48;;;;;;;1.82;1.15;;;;;;;7.40;72.82;101680.69;1881962;75;21023;-49
2022/10/21 00:31:17;;;;;;;3.05;1.67;;;;;;;7.43;72.75;101681.94;1892045;75;21177;-49
2022/10/21 00:33:46;;;;;;;2.83;1.25;;;;;;;7.45;72.32;101681.06;1888190;76;21114;-46
2022/10/21 00:36:15;;;;;;;2.98;1.60;;;;;;;7.48;72.06;101686.69;1887499;76;21169;-48
2022/10/21 00:38:47;;;;;;;4.17;1.37;;;;;;;7.50;72.15;101696.26;1880750;75;21058;-50
2022/10/21 00:41:18;;;;;;;4.42;1.35;;;;;;;7.52;72.17;101701.49;1872192;76;21430;-47
2022/10/21 00:43:58;;;;;;;2.72;1.35;;;;;;;7.53;72.10;101699.31;1862295;76;21105;-53
2022/10/21 00:46:33;;;;;;;5.95;1.42;;;;;;;7.55;72.10;101702.78;1847144;78;21121;-53
2022/10/21 00:49:04;;;;;;;2.77;1.45;;;;;;;7.58;71.97;101709.73;1847151;78;21078;-53
2022/10/21 00:51:33;;;;;;;5.42;1.25;;;;;;;7.58;72.03;101708.00;1847154;78;21555;-53
2022/10/21 00:54:04;;;;;;;2.72;1.92;;;;;;;7.58;71.99;101714.97;1861131;76;21492;-52
2022/10/21 00:56:35;;;;;;;2.72;1.80;;;;;;;7.58;72.22;101709.31;1878402;76;21187;-52
2022/10/21 00:59:06;;;;;;;3.98;2.12;;;;;;;7.53;72.86;101708.03;1877288;76;21041;-60
2022/10/21 01:01:35;;;;;;;3.08;1.80;;;;;;;7.54;73.22;101701.03;1878493;76;21104;-61
2022/10/21 01:04:04;;;;;;;5.08;1.45;;;;;;;7.53;73.76;101695.38;1875804;76;21037;-59
2022/10/21 01:06:36;;;;;;;1.52;1.17;;;;;;;7.54;74.02;101693.16;1864680;76;21240;-60
2022/10/21 01:09:05;;;;;;;1.25;1.00;;;;;;;7.55;73.87;101704.09;1865292;76;21116;-59
2022/10/21 01:11:37;;;;;;;2.42;1.52;;;;;;;7.57;73.68;101708.87;1863458;75;21480;-60
2022/10/21 01:14:17;;;;;;;3.62;1.27;;;;;;;7.57;73.91;101710.17;1839900;76;21517;-61
2022/10/21 01:17:07;;;;;;;2.00;1.25;;;;;;;7.58;74.21;101713.24;1838020;78;21054;-60
2022/10/21 01:19:58;;;;;;;2.30;0.85;;;;;;;7.58;73.95;101711.93;1888081;75;21083;-61
2022/10/21 01:22:45;;;;;;;3.30;1.50;;;;;;;7.59;74.04;101713.65;1886224;75;21047;-61
2022/10/21 01:25:32;;;;;;;2.98;1.40;;;;;;;7.59;73.86;101725.44;1851041;76;21031;-62
2022/10/21 01:28:20;;;;;;;1.75;1.05;;;;;;;7.59;73.98;101735.92;1807429;76;21138;-61
2022/10/21 01:31:01;;;;;;;3.55;1.60;;;;;;;7.60;74.06;101741.61;1849561;76;21561;-61
2022/10/21 01:33:39;;;;;;;1.50;1.05;;;;;;;7.59;74.38;101735.92;1842806;75;21055;-61
2022/10/21 01:36:20;;;;;;;2.25;1.52;;;;;;;7.60;74.37;101740.30;1849063;77;21055;-62
2022/10/21 01:38:53;;;;;;;2.50;1.70;;;;;;;7.60;74.74;101740.30;1855501;75;21502;-62
2022/10/21 01:41:37;;;;;;;3.52;1.70;;;;;;;7.59;74.73;101741.17;1873467;75;21048;-50
2022/10/21 01:44:11;;;;;;;3.58;1.80;;;;;;;7.60;74.97;101740.30;1861722;77;21101;-59
2022/10/21 01:46:48;;;;;;;3.15;1.42;;;;;;;7.60;75.33;101738.09;1861290;75;21206;-57
2022/10/21 01:49:29;;;;;;;3.65;1.87;;;;;;;7.61;75.07;101748.56;1870259;75;21477;-58
2022/10/21 01:52:01;;;;;;;3.58;1.72;;;;;;;7.61;75.29;101749.88;1868680;75;21085;-55
2022/10/21 01:54:42;;;;;;;3.92;1.35;;;;;;;7.62;75.01;101746.39;1871079;76;21121;-60
2022/10/21 01:57:14;;;;;;;4.95;1.70;;;;;;;7.65;74.97;101755.95;1869695;75;21014;-54
2022/10/21 01:59:45;;;;;;;3.72;2.10;;;;;;;7.66;74.85;101757.27;1871065;77;21069;-56
2022/10/21 02:02:17;;;;;;;2.45;1.12;;;;;;;7.67;74.97;101761.63;1839977;78;21025;-61
2022/10/21 02:04:47;;;;;;;4.10;1.92;;;;;;;7.69;74.70;101765.52;1839941;78;21122;-59
2022/10/21 02:07:16;;;;;;;5.05;1.55;;;;;;;7.70;74.54;101774.69;1839576;77;21112;-60
2022/10/21 02:09:44;;;;;;;7.37;2.40;;;;;;;7.69;74.34;101774.28;1839977;78;21182;-60
2022/10/21 02:12:15;;;;;;;7.40;3.05;;;;;;;7.69;74.22;101771.66;1839989;78;21064;-60
2022/10/21 02:14:46;;;;;;;9.00;3.42;;;;;;;7.69;74.29;101779.52;1857147;75;21192;-57
2022/10/21 02:17:19;;;;;;;4.75;2.70;;;;;;;7.73;74.17;101789.09;1848739;76;21091;-57
2022/10/21 02:19:48;;;;;;;3.35;2.30;;;;;;;7.73;74.27;101786.46;1887663;75;21556;-58
2022/10/21 02:22:20;;;;;;;4.12;1.62;;;;;;;7.74;74.24;101776.83;1863551;75;21026;-57
2022/10/21 02:25:01;;;;;;;5.35;1.82;;;;;;;7.73;74.57;101789.09;1865210;76;21058;-56
2022/10/21 02:27:30;;;;;;;3.10;1.90;;;;;;;7.73;74.27;101796.95;1868608;76;21069;-58
2022/10/21 02:30:01;;;;;;;2.27;1.77;;;;;;;7.72;74.07;101808.30;1868738;77;21038;-57
2022/10/21 02:32:35;;;;;;;3.10;1.77;;;;;;;7.68;74.05;101810.98;1865043;77;21054;-57
2022/10/21 02:35:42;;;;;;;2.22;1.45;;;;;;;7.62;74.13;101814.54;1868764;77;21035;-58
2022/10/21 02:38:26;;;;;;;6.03;2.80;;;;;;;7.58;74.53;101815.46;1868590;77;21070;-56
2022/10/21 02:40:57;;;;;;;3.47;2.40;;;;;;;7.54;74.63;101814.62;1868770;76;21207;-58
2022/10/21 02:43:32;;;;;;;4.45;2.62;;;;;;;7.53;74.88;101812.87;1862382;75;21255;-59
2022/10/21 02:46:03;;;;;;;4.72;1.95;;;;;;;7.55;74.79;101819.41;1852032;75;21126;-57
2022/10/21 02:48:36;;;;;;;3.47;1.70;;;;;;;7.57;74.70;101818.95;1900624;75;21510;-57
2022/10/21 02:51:07;;;;;;;5.03;1.62;;;;;;;7.58;74.55;101825.95;1859409;75;21050;-58
2022/10/21 02:53:36;;;;;;;5.58;2.22;;;;;;;7.61;74.52;101828.52;1850776;77;21039;-58
2022/10/21 02:56:06;;;;;;;6.92;2.87;;;;;;;7.60;74.76;101825.48;1850610;77;21034;-59
2022/10/21 02:58:35;;;;;;;5.25;1.92;;;;;;;7.62;75.09;101822.41;1848262;77;21064;-57
2022/10/21 03:01:04;;;;;;;11.15;3.20;;;;;;;7.61;75.11;101825.89;1848178;78;21046;-59
2022/10/21 03:03:32;;;;;;;4.85;2.40;;;;;;;7.63;75.07;101826.75;1896382;75;21125;-55
2022/10/21 03:06:01;;;;;;;3.15;1.95;;;;;;;7.64;75.22;101828.50;1876648;75;21133;-56
2022/10/21 03:08:30;;;;;;;6.03;2.70;;;;;;;7.67;75.07;101832.83;1863827;76;21106;-56
2022/10/21 03:10:58;;;;;;;3.35;1.80;;;;;;;7.73;74.94;101838.90;1863983;76;21071;-56
2022/10/21 03:13:27;;;;;;;10.85;1.60;;;;;;;7.76;74.79;101833.20;1864121;76;21043;-57
2022/10/21 03:15:56;;;;;;;4.75;2.15;;;;;;;7.79;74.67;101828.79;1864824;76;21049;-56
2022/10/21 03:18:25;;;;;;;4.78;1.92;;;;;;;7.83;74.65;101834.88;1854678;76;21098;-60
2022/10/21 03:20:53;;;;;;;4.10;2.27;;;;;;;7.84;74.58;101837.48;1826894;77;21164;-58
2022/10/21 03:23:24;;;;;;;3.50;1.47;;;;;;;7.86;74.54;101840.09;1899871;75;21043;-59
2022/10/21 03:25:53;;;;;;;1.75;1.17;;;;;;;7.89;74.45;101833.48;1916395;75;21031;-58
2022/10/21 03:28:21;;;;;;;5.17;1.90;;;;;;;7.89;74.33;101843.56;1916344;75;21063;-58
2022/10/21 03:30:50;;;;;;;3.95;2.25;;;;;;;7.92;74.31;101840.02;1890077;74;21169;-57
2022/10/21 03:33:19;;;;;;;4.12;1.90;;;;;;;7.93;74.42;101847.02;1913995;73;21079;-55
2022/10/21 03:35:48;;;;;;;2.65;1.50;;;;;;;7.92;74.48;101841.33;1892766;74;21082;-54
2022/10/21 03:38:17;;;;;;;8.70;2.17;;;;;;;7.92;74.75;101845.27;1878588;76;21141;-55
2022/10/21 03:40:46;;;;;;;5.42;1.82;;;;;;;7.89;74.78;101840.05;1896288;75;21452;-57
2022/10/21 03:43:15;;;;;;;3.08;1.80;;;;;;;7.86;75.00;101849.27;1916745;74;21085;-56
2022/10/21 03:45:44;;;;;;;5.50;2.90;;;;;;;7.82;75.06;101851.48;1917038;75;21481;-54
2022/10/21 03:48:13;;;;;;;4.30;2.42;;;;;;;7.77;75.25;101849.36;1900862;75;21070;-53
2022/10/21 03:50:42;;;;;;;5.60;2.90;;;;;;;7.73;75.92;101855.94;1884093;76;21485;-55
2022/10/21 03:53:10;;;;;;;6.10;2.55;;;;;;;7.71;75.90;101852.47;1883864;76;21094;-52
2022/10/21 03:55:39;;;;;;;4.85;2.70;;;;;;;7.71;75.92;101852.91;1877455;75;21118;-55
2022/10/21 03:58:08;;;;;;;5.70;2.75;;;;;;;7.72;75.91;101859.43;1874101;76;21035;-53
2022/10/21 04:00:36;;;;;;;6.42;2.27;;;;;;;7.73;75.98;101870.81;1876848;75;21051;-55
2022/10/21 04:03:05;;;;;;;4.10;2.22;;;;;;;7.73;76.07;101867.73;1874033;76;21055;-56
2022/10/21 04:05:34;;;;;;;4.12;2.55;;;;;;;7.76;76.01;101868.59;1874062;76;21067;-56
2022/10/21 04:08:03;;;;;;;4.40;1.80;;;;;;;7.77;76.50;101867.27;1874221;76;21118;-58
2022/10/21 04:10:31;;;;;;;5.45;2.58;;;;;;;7.79;76.74;101865.95;1879268;75;21067;-57
2022/10/21 04:13:00;;;;;;;10.60;4.65;;;;;;;7.81;76.82;101879.91;1883793;76;21046;-57
2022/10/21 04:15:28;;;;;;;4.90;2.62;;;;;;;7.81;76.66;101882.53;1883798;76;21046;-57
2022/10/21 04:17:57;;;;;;;11.22;4.58;;;;;;;7.82;76.50;101886.88;1886707;74;21142;-55
2022/10/21 04:20:26;;;;;;;6.58;4.15;;;;;;;7.83;76.65;101886.86;1911856;74;21042;-57
2022/10/21 04:23:00;;;;;;;3.80;2.42;;;;;;;7.85;76.58;101886.86;1902197;74;21072;-55
2022/10/21 04:25:25;;;;;;;5.67;3.40;;;;;;;7.85;76.71;101884.23;1906684;74;21117;-55
2022/10/21 04:27:54;;;;;;;3.50;2.17;;;;;;;7.89;76.72;101889.87;1869330;76;21019;-55
2022/10/21 04:30:23;;;;;;;5.17;3.12;;;;;;;7.90;76.74;101883.30;1903977;74;20992;-56
2022/10/21 04:32:52;;;;;;;4.80;3.67;;;;;;;7.93;76.77;101890.30;1908787;74;21144;-49
2022/10/21 04:35:21;;;;;;;5.12;2.85;;;;;;;7.96;76.92;101892.00;1888011;75;21163;-45
2022/10/21 04:37:50;;;;;;;8.45;3.52;;;;;;;7.96;76.94;101890.24;1874769;74;21030;-45
2022/10/21 04:40:19;;;;;;;5.40;3.33;;;;;;;7.99;77.15;101903.34;1881245;76;21058;-43
2022/10/21 04:42:50;;;;;;;4.87;2.58;;;;;;;7.99;77.05;101900.72;1882492;75;21140;-46
2022/10/21 04:45:20;;;;;;;7.75;4.62;;;;;;;7.98;77.09;101919.94;1874498;76;21566;-49
2022/10/21 04:47:48;;;;;;;10.05;5.72;;;;;;;7.98;77.32;101922.56;1878507;74;21059;-47
2022/10/21 04:50:17;;;;;;;8.60;4.40;;;;;;;7.97;77.67;101923.89;1886592;76;21058;-44
2022/10/21 04:52:46;;;;;;;4.55;2.80;;;;;;;7.95;77.64;101923.92;1878476;76;21042;-45
2022/10/21 04:55:15;;;;;;;2.72;1.95;;;;;;;7.95;77.57;101933.11;1876815;75;21043;-46
2022/10/21 04:57:44;;;;;;;6.12;3.45;;;;;;;7.95;77.75;101931.80;1873970;76;21580;-49
2022/10/21 05:00:14;;;;;;;4.58;3.12;;;;;;;7.98;77.71;101938.30;1876733;75;21034;-47
2022/10/21 05:02:42;;;;;;;8.30;3.83;;;;;;;7.98;77.58;101933.06;1883106;75;21152;-56
2022/10/21 05:05:11;;;;;;;5.78;3.30;;;;;;;8.02;77.64;101945.28;1911792;74;21575;-55
2022/10/21 05:07:40;;;;;;;6.28;3.12;;;;;;;8.04;77.80;101946.14;1899475;75;21131;-56
2022/10/21 05:10:12;;;;;;;3.17;2.15;;;;;;;8.08;77.86;101939.97;1868626;77;21020;-56
2022/10/21 05:12:40;;;;;;;5.40;3.25;;;;;;;8.11;77.89;101951.76;1868541;76;21020;-56
2022/10/21 05:15:10;;;;;;;6.78;3.40;;;;;;;8.14;77.74;101951.30;1868120;77;21106;-56
2022/10/21 05:17:38;;;;;;;6.22;3.08;;;;;;;8.18;77.79;101953.00;1868665;77;21089;-56
2022/10/21 05:20:08;;;;;;;4.97;2.70;;;;;;;8.20;78.03;101953.85;1879761;75;21006;-55
2022/10/21 05:22:37;;;;;;;18.37;3.72;;;;;;;8.23;77.92;101961.70;1883701;76;21136;-55
2022/10/21 05:25:06;;;;;;;4.85;2.58;;;;;;;8.26;77.78;101962.97;1883793;76;21042;-55
2022/10/21 05:27:35;;;;;;;6.60;3.70;;;;;;;8.28;77.64;101961.19;1883848;76;21042;-56
2022/10/21 05:30:05;;;;;;;4.70;2.77;;;;;;;8.29;77.59;101972.98;1881942;75;21031;-56
2022/10/21 05:32:43;;;;;;;8.78;4.28;;;;;;;8.31;77.48;101972.53;1880627;76;21133;-55
2022/10/21 05:35:11;;;;;;;8.50;3.40;;;;;;;8.32;77.45;101982.61;1824129;78;21112;-55
2022/10/21 05:37:40;;;;;;;5.85;3.02;;;;;;;8.31;77.48;101974.30;1826694;78;21491;-59
2022/10/21 05:40:09;;;;;;;6.67;3.55;;;;;;;8.31;77.49;101984.34;1817991;77;21176;-56
2022/10/21 05:42:38;;;;;;;7.20;3.85;;;;;;;8.31;77.63;101980.41;1814182;78;21094;-54
2022/10/21 05:45:08;;;;;;;6.70;3.87;;;;;;;8.32;77.57;101976.05;1789031;80;21132;-52
2022/10/21 05:47:37;;;;;;;4.72;3.00;;;;;;;8.31;77.77;101980.41;1789000;80;21138;-52
2022/10/21 05:50:06;;;;;;;6.78;3.52;;;;;;;8.35;77.80;101979.07;1789811;79;21090;-52
2022/10/21 05:52:35;;;;;;;5.70;3.10;;;;;;;8.37;77.98;101988.66;1788822;80;21131;-52
2022/10/21 05:55:05;;;;;;;10.85;3.65;;;;;;;8.42;77.97;101976.39;1788929;79;21055;-52
2022/10/21 05:57:35;;;;;;;6.97;3.75;;;;;;;8.46;78.02;101989.91;1788750;80;21008;-50
2022/10/21 06:00:06;;;;;;;10.55;5.67;;;;;;;8.49;77.93;101996.45;1790577;79;21011;-52
2022/10/21 06:02:34;;;;;;;7.33;4.70;;;;;;;8.53;77.91;102000.37;1818640;78;21171;-52
2022/10/21 06:05:03;;;;;;;6.83;4.40;;;;;;;8.56;77.83;102009.50;1812631;79;21071;-58
2022/10/21 06:07:32;;;;;;;4.78;3.12;;;;;;;8.56;77.87;102013.02;1789026;80;21502;-56
2022/10/21 06:10:01;;;;;;;7.33;3.33;;;;;;;8.55;77.85;102013.03;1810789;77;21154;-55
2022/10/21 06:12:30;;;;;;;7.20;3.70;;;;;;;8.56;77.64;102017.38;1818631;77;21158;-55
2022/10/21 06:14:58;;;;;;;6.65;2.92;;;;;;;8.59;77.50;102021.30;1812137;79;21032;-54
2022/10/21 06:17:27;;;;;;;7.55;4.00;;;;;;;8.63;77.64;102021.69;1818673;79;21102;-56
2022/10/21 06:19:56;;;;;;;4.28;2.83;;;;;;;8.69;77.69;102021.64;1817057;79;21119;-55
2022/10/21 06:22:25;;;;;;;4.67;3.08;;;;;;;8.72;77.92;102027.29;1812043;77;21067;-51
2022/10/21 06:24:54;;;;;;;6.92;2.85;;;;;;;8.75;77.90;102018.08;1818718;79;21087;-51
2022/10/21 06:27:23;;;;;;;5.53;3.83;;;;;;;8.73;78.15;102025.11;1816196;79;21498;-55
2022/10/21 06:29:51;;;;;;;5.30;3.67;;;;;;;8.72;78.09;102020.72;1812034;77;21051;-52
2022/10/21 06:32:20;;;;;;;5.25;3.20;;;;;;;8.72;78.44;102024.21;1817492;79;21043;-49
2022/10/21 06:34:49;;;;;;;4.30;3.02;;;;;;;8.78;78.43;102032.05;1801216;79;21180;-50
2022/10/21 06:37:18;;;;;;;6.58;3.47;;;;;;;8.87;78.33;102028.00;1803265;79;21170;-51
2022/10/21 06:39:46;;;;;;;4.22;2.95;;;;;;;8.94;78.18;102034.48;1803206;79;21127;-49
2022/10/21 06:42:16;;;;;;;5.95;3.47;;;;;;;9.00;78.16;102033.09;1801845;79;21154;-49
2022/10/21 06:44:46;;;;;;;4.08;2.52;;;;;;;9.07;78.11;102041.33;1801764;79;21661;-56
2022/10/21 06:47:16;;;;;;;5.70;2.87;;;;;;;9.12;78.15;102039.52;1803370;79;21060;-60
2022/10/21 06:49:45;;;;;;;6.25;3.72;;;;;;;9.11;78.03;102040.85;1802630;79;21589;-59
2022/10/21 06:52:14;;;;;;;6.00;3.90;;;;;;;9.09;77.99;102044.80;1803349;79;21146;-59
2022/10/21 06:54:43;;;;;;;7.60;3.52;;;;;;;9.06;78.21;102042.23;1803391;79;21085;-63
2022/10/21 06:57:12;;;;;;;5.83;4.22;;;;;;;9.05;78.29;102050.99;1802995;79;21155;-59
2022/10/21 06:59:40;;;;;;;6.85;3.55;;;;;;;9.03;78.32;102047.52;1802179;79;21084;-59
2022/10/21 07:02:09;;;;;;;4.72;3.33;;;;;;;9.04;78.30;102051.90;1803053;79;21123;-57
2022/10/21 07:04:38;;;;;;;8.03;3.77;;;;;;;9.10;78.36;102047.88;1790108;79;21543;-57
2022/10/21 07:07:07;;;;;;;5.97;3.25;;;;;;;9.12;78.48;102053.98;1791447;79;21100;-57
2022/10/21 07:09:36;;;;;;;4.83;2.85;;;;;;;9.16;78.43;102049.10;1803071;79;21049;-61
2022/10/21 07:12:05;;;;;;;4.60;2.80;;;;;;;9.22;78.50;102054.72;1803167;79;21105;-61
2022/10/21 07:14:34;;;;;;;6.53;3.00;;;;;;;9.27;78.51;102047.20;1801235;79;21059;-60
2022/10/21 07:17:03;;;;;;;5.12;3.10;;;;;;;9.33;78.44;102055.91;1835028;77;21063;-59
2022/10/21 07:19:33;;;;;;;3.47;2.52;;;;;;;9.42;78.48;102061.05;1829677;77;21043;-61
2022/10/21 07:22:01;;;;;;;3.95;2.85;;;;;;;9.49;78.32;102058.77;1837361;77;21506;-57
2022/10/21 07:29:21;;;;;;;3.50;2.10;;;;;;;9.66;78.17;102064.68;1837654;78;21078;-56
2022/10/21 07:31:50;;;;;;;3.60;2.67;;;;;;;9.76;78.21;102064.55;1822950;78;21037;-57
2022/10/21 07:34:19;;;;;;;2.92;1.80;;;;;;;9.88;78.00;102066.98;1822211;76;21129;-48
2022/10/21 07:36:51;;;;;;;4.28;2.77;;;;;;;10.02;77.83;102065.02;1875689;76;21118;-48
2022/10/21 07:39:25;;;;;;;5.00;2.40;;;;;;;10.26;77.43;102057.63;1878302;76;21054;-56
2022/10/21 07:41:56;;;;;;;3.40;2.30;;;;;;;10.36;77.19;102067.12;1845256;76;21132;-55
2022/10/21 07:44:26;;;;;;;4.67;2.25;;;;;;;10.32;77.09;102065.44;1837625;78;21124;-57
2022/10/21 07:46:55;;;;;;;6.85;2.37;;;;;;;10.29;77.01;102064.16;1837342;77;21075;-57
2022/10/21 07:49:25;;;;;;;5.20;2.20;;;;;;;10.27;76.92;102069.02;1860186;75;21473;-58
2022/10/21 07:51:54;;;;;;;2.85;1.80;;;;;;;10.25;76.95;102063.77;1844316;78;21446;-57
2022/10/21 07:54:23;;;;;;;3.77;2.20;;;;;;;10.22;76.99;102079.17;1838420;76;21438;-53
2022/10/21 07:56:52;;;;;;;5.70;2.05;;;;;;;10.27;76.90;102080.86;1837545;78;21042;-53
2022/10/21 07:59:22;;;;;;;3.37;2.30;;;;;;;10.31;76.87;102072.94;1837428;78;21067;-53
2022/10/21 08:01:52;;;;;;;7.20;2.35;;;;;;;10.40;76.81;102080.68;1837396;78;21114;-52
2022/10/21 08:04:28;;;;;;;3.95;2.27;;;;;;;10.73;76.55;102078.78;1842645;76;21005;-51
2022/10/21 08:06:57;;;;;;;4.55;2.15;;;;;;;11.26;75.88;102077.33;1840074;78;21111;-52
2022/10/21 08:09:26;;;;;;;4.78;2.50;;;;;;;11.68;75.24;102080.81;1840179;78;21099;-54
2022/10/21 08:11:55;;;;;;;3.65;2.02;;;;;;;11.86;74.93;102089.20;1861759;76;21113;-57
2022/10/21 08:14:30;;;;;;;4.50;2.80;;;;;;;11.97;74.83;102086.78;1837411;77;21483;-57
2022/10/21 08:17:18;;;;;;;;;;;;;;;12.32;74.49;102075.83;1818789;79;21584;-51
2022/10/21 08:19:47;;;;;;;4.08;2.08;;;;;;;12.96;73.70;102084.27;1846795;77;20184;-52
2022/10/21 08:22:16;;;;;;;6.30;2.95;;;;;;;13.08;73.12;102081.30;1845838;76;21133;-50
2022/10/21 08:24:44;;;;;;;4.90;2.00;;;;;;;12.90;73.01;102085.31;1846836;78;21047;-51
2022/10/21 08:27:13;;;;;;;4.55;2.55;;;;;;;12.62;72.97;102081.23;1846919;78;21059;-53
2022/10/21 08:29:42;;;;;;;4.87;2.10;;;;;;;12.40;73.26;102082.23;1849707;77;21031;-51
2022/10/21 08:32:10;;;;;;;3.58;1.95;;;;;;;12.21;73.41;102093.72;1837823;77;21117;-52
2022/10/21 08:34:43;;;;;;;2.77;1.90;;;;;;;12.13;73.42;102091.23;1830907;77;21071;-52
2022/10/21 08:37:12;;;;;;;2.45;1.35;;;;;;;12.12;73.58;102089.98;1814308;77;21177;-52
2022/10/21 08:39:41;;;;;;;3.25;1.75;;;;;;;11.97;73.68;102093.39;1821122;77;21079;-55
2022/10/21 08:42:18;;;;;;;3.12;1.50;;;;;;;11.73;73.78;102102.70;1814639;78;21157;-52
2022/10/21 08:45:07;;;;;;;3.72;1.77;;;;;;;11.55;73.98;102101.32;1816815;78;21021;-52
2022/10/21 08:47:45;;;;;;;2.27;1.40;;;;;;;11.39;74.10;102104.72;1839490;77;21498;-53
2022/10/21 08:50:16;;;;;;;3.90;1.80;;;;;;;11.37;74.05;102101.70;1846884;77;21027;-54
2022/10/21 08:53:00;;;;;;;3.10;1.67;;;;;;;11.56;73.74;102100.44;1847382;78;21099;-55
2022/10/21 08:55:38;;;;;;;4.08;1.98;;;;;;;13.97;70.26;102091.50;1834460;78;21551;-53
2022/10/21 08:58:10;;;;;;;5.40;1.82;;;;;;;14.26;69.70;102098.05;1816912;79;21141;-54
2022/10/21 09:00:42;;;;;;;2.80;1.75;;;;;;;15.78;67.56;102094.87;1816767;79;21520;-53
2022/10/21 09:03:22;;;;;;;2.58;1.55;;;;;;;16.39;65.56;102087.53;1816637;78;21063;-52
2022/10/21 09:05:56;;;;;;;2.12;0.95;;;;;;;16.34;66.01;102080.20;1816999;78;21156;-50
2022/10/21 09:16:01;;;;;;;2.65;1.30;;;;;;;14.41;68.35;102090.51;1917536;71;21094;-50
2022/10/21 09:18:52;;;;;;;3.10;1.40;;;;;;;14.07;68.62;102100.86;1921832;73;21147;-51
2022/10/21 09:21:24;;;;;;;3.12;1.27;;;;;;;13.75;68.87;102099.24;1923152;74;21454;-46
2022/10/21 09:24:26;;;;;;;3.35;1.65;;;;;;;13.41;69.08;102096.27;1943292;73;21095;-50
2022/10/21 09:26:56;;;;;;;4.37;1.60;;;;;;;13.13;69.18;102093.05;1932215;74;21109;-45
2022/10/21 09:29:27;;;;;;;2.45;1.30;;;;;;;12.94;69.34;102098.85;1908810;74;21457;-45
2022/10/21 09:32:17;;;;;;;2.67;1.40;;;;;;;12.77;69.16;102098.92;1909965;74;21004;-46
2022/10/21 09:34:51;;;;;;;2.12;1.20;;;;;;;12.60;69.11;102104.19;1936374;74;21527;-50
2022/10/21 09:37:26;;;;;;;3.17;1.85;;;;;;;12.68;69.08;102111.45;1913490;73;21012;-46
2022/10/21 09:40:20;;;;;;;2.12;1.30;;;;;;;12.92;68.83;102105.10;1921136;74;21431;-49
2022/10/21 09:42:57;;;;;;;;;;;;;;;12.98;68.81;102104.92;1946425;74;21461;-49
2022/10/21 09:45:35;;;;;;;5.53;1.50;;;;;;;12.92;68.82;102111.72;1926600;74;20382;-49
2022/10/21 09:48:21;;;;;;;4.03;1.40;;;;;;;12.82;68.81;102108.45;1943566;74;21461;-51
2022/10/21 09:50:53;;;;;;;4.62;1.35;;;;;;;12.80;68.84;102113.35;1925949;73;21121;-52
2022/10/21 09:53:28;;;;;;;2.52;1.45;;;;;;;12.74;68.84;102104.70;1944649;73;21063;-48
2022/10/21 09:56:02;;;;;;;2.85;1.47;;;;;;;12.72;68.87;102111.77;1942017;73;21071;-51
2022/10/21 09:58:40;;;;;;;2.50;1.30;;;;;;;12.72;68.89;102114.87;1944254;74;21102;-49
2022/10/21 10:01:10;;;;;;;4.42;1.80;;;;;;;12.70;68.93;102112.73;1942688;72;21043;-51
2022/10/21 10:03:53;;;;;;;2.58;1.60;;;;;;;12.64;68.80;102113.77;1944112;73;21035;-49
2022/10/21 10:06:43;;;;;;;3.58;1.52;;;;;;;12.48;68.63;102111.95;1934028;74;21149;-56
2022/10/21 10:09:17;;;;;;;4.87;1.40;;;;;;;12.36;68.85;102114.45;1944646;74;21551;-56
2022/10/21 10:11:52;;;;;;;4.28;1.60;;;;;;;12.25;68.85;102118.28;1943813;73;21113;-56
2022/10/21 10:14:27;;;;;;;2.50;1.50;;;;;;;12.14;68.62;102115.89;1944464;73;21038;-56
2022/10/21 10:16:57;;;;;;;3.85;1.67;;;;;;;12.04;68.72;102120.95;1953841;73;21169;-51
2022/10/21 10:19:28;;;;;;;2.85;1.45;;;;;;;12.00;68.82;102111.37;1968830;72;21023;-55
2022/10/21 10:22:16;;;;;;;3.00;1.30;;;;;;;11.97;68.86;102114.50;1964016;72;21492;-51
2022/10/21 10:24:45;;;;;;;2.10;1.42;;;;;;;12.01;68.93;102117.94;1975997;72;21011;-55
2022/10/21 10:27:17;;;;;;;3.72;1.87;;;;;;;12.10;68.90;102114.23;1983698;72;21048;-48
2022/10/21 10:29:52;;;;;;;2.65;1.40;;;;;;;12.23;68.84;102110.39;1956796;73;21113;-57
2022/10/21 10:32:23;;;;;;;2.22;1.60;;;;;;;12.43;68.59;102115.62;1957962;73;21089;-56
2022/10/21 10:34:58;;;;;;;4.28;2.00;;;;;;;12.63;68.33;102115.12;1957805;73;21059;-56
2022/10/21 10:37:28;;;;;;;5.20;1.80;;;;;;;12.71;68.11;102115.34;1956142;73;21054;-56
2022/10/21 10:40:00;;;;;;;6.85;2.30;;;;;;;12.71;67.89;102120.63;1948760;73;21125;-56
2022/10/21 10:42:32;;;;;;;9.30;1.47;;;;;;;12.70;67.89;102120.20;1923931;74;21402;-56
2022/10/21 10:45:06;;;;;;;4.72;2.25;;;;;;;12.72;67.87;102126.31;1965209;72;21105;-56
2022/10/21 10:47:43;;;;;;;3.72;1.85;;;;;;;12.73;67.75;102117.95;1952577;73;21481;-51
2022/10/21 10:50:34;;;;;;;3.60;1.60;;;;;;;12.86;67.47;102125.11;1946114;73;21168;-47
2022/10/21 10:53:22;;;;;;;3.75;1.85;;;;;;;13.04;67.20;102118.00;1957508;73;21118;-48
2022/10/21 10:56:05;;;;;;;5.67;2.05;;;;;;;13.13;66.98;102119.50;1962847;73;21031;-58
2022/10/21 10:58:40;;;;;;;4.85;1.67;;;;;;;13.13;67.05;102110.24;1963004;73;21079;-58
2022/10/21 11:01:14;;;;;;;3.33;2.27;;;;;;;13.04;66.92;102125.05;1962716;73;21153;-60
2022/10/21 11:03:48;;;;;;;1.98;1.42;;;;;;;12.91;66.97;102117.46;1961535;73;21101;-54
2022/10/21 11:06:20;;;;;;;4.50;1.98;;;;;;;12.79;66.93;102123.53;1919770;74;21480;-50
2022/10/21 11:08:51;;;;;;;2.77;1.80;;;;;;;12.71;66.96;102120.63;1946855;73;21429;-54
2022/10/21 11:11:31;;;;;;;3.02;2.10;;;;;;;12.67;66.87;102124.27;1953132;73;21039;-58
2022/10/21 11:14:00;;;;;;;6.92;2.00;;;;;;;12.63;66.70;102125.22;1950299;73;21473;-58
2022/10/21 11:16:35;;;;;;;4.42;2.22;;;;;;;12.62;66.68;102131.44;1923433;73;21517;-57
2022/10/21 11:19:09;;;;;;;2.60;1.85;;;;;;;12.57;66.71;102137.28;1909711;75;21082;-56
2022/10/21 11:35:05;;;;;;;5.08;2.55;;;;;;;12.68;65.95;102143.62;1959195;73;22543;-50
2022/10/21 11:37:53;;;;;;;3.92;1.75;;;;;;;12.66;65.99;102146.30;1917101;74;21067;-49
2022/10/21 11:40:39;;;;;;;3.80;1.52;;;;;;;12.68;65.84;102144.48;1909665;74;21093;-50
2022/10/21 11:43:14;;;;;;;3.52;1.90;;;;;;;12.66;65.73;102150.72;1887211;75;21070;-48
2022/10/21 11:46:02;;;;;;;3.42;1.75;;;;;;;12.69;65.69;102156.80;1887427;75;21055;-50
2022/10/21 11:48:40;;;;;;;2.70;1.90;;;;;;;12.71;65.70;102147.52;1898459;75;21572;-53
2022/10/21 11:51:24;;;;;;;4.15;2.00;;;;;;;12.75;65.69;102144.73;1914466;74;21082;-49
2022/10/21 11:54:29;;;;;;;40.12;14.03;;;;;;;12.75;65.64;102144.73;1902108;75;21094;-55
2022/10/21 11:57:14;;;;;;;3.70;2.00;;;;;;;12.68;65.45;102143.62;1918101;75;21615;-54
2022/10/21 11:59:57;;;;;;;4.00;1.92;;;;;;;12.67;65.47;102141.87;1916283;74;21504;-52
2022/10/21 12:02:29;;;;;;;3.58;1.80;;;;;;;12.70;65.38;102146.62;1891914;75;21558;-58
2022/10/21 12:05:33;;;;;;;3.02;2.00;;;;;;;12.73;65.35;102159.77;1898131;75;21092;-55
2022/10/21 12:08:22;;;;;;;2.17;1.35;;;;;;;12.72;65.34;102158.02;1885825;76;21106;-54
2022/10/21 12:11:18;;;;;;;7.87;2.00;;;;;;;12.70;65.30;102162.95;1885524;75;21015;-53
2022/10/21 12:13:56;;;;;;;3.00;1.45;;;;;;;12.61;65.19;102166.68;1872714;75;21162;-48
2022/10/21 12:16:30;;;;;;;3.90;1.80;;;;;;;12.52;65.18;102166.91;1885708;75;21105;-53
2022/10/21 12:19:04;;;;;;;1.90;1.22;;;;;;;12.43;65.15;102173.73;1906312;75;21089;-50
2022/10/21 12:21:35;;;;;;;8.25;3.72;;;;;;;12.31;64.94;102165.20;1918159;74;21099;-53
2022/10/21 12:24:31;;;;;;;1.87;1.12;;;;;;;12.23;64.89;102175.52;1918390;75;21442;-51